Time;durP1;ratioP1;P1;durP2;ratioP2;P2;SDS_P1;SDS_P2;PMS_P1;PMS_P2;Temp;Humidity;BMP_temperature;BMP_pressure;BME280_temperature;BME280_humidity;BME280_pressure;Samples;Min_cycle;Max_cycle;Signal;HPM_P1;HPM_P2
2021/08/07 00:01:55;;;;;;;4.00;0.88;;;;;;;;;;5116882;28;20020;-80
2021/08/07 00:04:21;;;;;;;6.22;2.42;;;;;;;;;;5116954;28;20408;-81
2021/08/07 00:06:46;;;;;;;;;;;;;;;;;;5117307;28;20363;-81
2021/08/07 00:09:12;;;;;;;;;;;;;;;;;;5117203;28;20298;-81
2021/08/07 00:11:37;;;;;;;;;;;;;;;;;;5117113;28;19916;-81
2021/08/07 00:14:02;;;;;;;;;;;;;;;;;;5117200;28;19912;-80
2021/08/07 00:16:28;;;;;;;;;;;;;;;;;;5117378;28;20264;-80
2021/08/07 00:18:53;;;;;;;;;;;;;;;;;;5117101;28;19911;-81
2021/08/07 00:21:19;;;;;;;;;;;;;;;;;;5117102;28;20329;-81
2021/08/07 00:23:44;;;;;;;;;;;;;;;;;;5126124;28;19923;-81
2021/08/07 00:26:10;;;;;;;;;;;;;;;;;;5134689;28;19922;-81
2021/08/07 00:28:35;;;;;;;;;;;;;;;;;;5128152;28;19916;-80
2021/08/07 00:31:01;;;;;;;3.90;0.95;;;;;;;;;;5118467;28;19962;-80
2021/08/07 00:33:26;;;;;;;4.68;1.35;;;;;;;;;;5118327;28;20031;-80
2021/08/07 00:35:52;;;;;;;;;;;;;;;;;;5118024;27;20031;-81
2021/08/07 00:38:17;;;;;;;;;;;;;;;;;;5117202;28;19919;-80
2021/08/07 00:40:43;;;;;;;;;;;;;;;;;;5117212;28;19911;-80
2021/08/07 00:43:10;;;;;;;;;;;;;;;;;;5116907;28;19922;-81
2021/08/07 00:45:36;;;;;;;;;;;;;;;;;;5115408;28;20406;-80
2021/08/07 00:48:02;;;;;;;4.40;1.70;;;;;;;;;;5116364;28;19939;-80
2021/08/07 00:50:27;;;;;;;8.93;1.48;;;;;;;;;;5114863;28;20036;-80
2021/08/07 00:52:53;;;;;;;4.40;1.00;;;;;;;;;;5116152;28;20026;-80
2021/08/07 00:55:18;;;;;;;;;;;;;;;;;;5116742;28;19916;-80
2021/08/07 00:57:44;;;;;;;3.93;1.80;;;;;;;;;;5116180;28;19916;-80
2021/08/07 01:00:10;;;;;;;;;;;;;;;;;;5116243;28;20102;-80
2021/08/07 01:02:35;;;;;;;4.82;1.38;;;;;;;;;;5115927;28;19919;-84
2021/08/07 01:05:14;;;;;;;3.63;1.55;;;;;;;;;;5115804;28;20073;-80
2021/08/07 01:07:52;;;;;;;4.72;1.60;;;;;;;;;;5115753;28;20102;-80
2021/08/07 01:10:32;;;;;;;6.15;1.52;;;;;;;;;;5115620;28;20036;-80
2021/08/07 01:13:08;;;;;;;5.43;1.85;;;;;;;;;;5116092;28;20023;-80
2021/08/07 01:15:42;;;;;;;6.97;2.03;;;;;;;;;;5115907;28;20031;-80
2021/08/07 01:18:12;;;;;;;4.85;1.90;;;;;;;;;;5115392;27;20035;-81
2021/08/07 01:20:49;;;;;;;6.05;1.75;;;;;;;;;;5115678;28;20052;-80
2021/08/07 01:23:20;;;;;;;5.97;2.15;;;;;;;;;;5115839;28;20098;-80
2021/08/07 01:25:54;;;;;;;4.50;2.25;;;;;;;;;;5115712;28;20424;-80
2021/08/07 01:28:21;;;;;;;5.25;2.42;;;;;;;;;;5115203;28;20019;-80
2021/08/07 01:30:52;;;;;;;6.50;2.25;;;;;;;;;;5115487;27;20102;-81
2021/08/07 01:33:19;;;;;;;6.65;2.63;;;;;;;;;;5115103;28;20052;-81
2021/08/07 01:35:47;;;;;;;7.18;2.40;;;;;;;;;;5115543;28;20068;-80
2021/08/07 01:38:13;;;;;;;6.05;3.60;;;;;;;;;;5114931;28;20399;-81
2021/08/07 01:40:38;;;;;;;4.55;2.22;;;;;;;;;;5115004;28;20023;-81
2021/08/07 01:43:05;;;;;;;6.68;2.45;;;;;;;;;;5114333;28;20497;-80
2021/08/07 01:45:31;;;;;;;6.75;2.30;;;;;;;;;;5114978;28;20024;-80
2021/08/07 01:48:09;;;;;;;10.05;3.33;;;;;;;;;;5114797;28;20371;-80
2021/08/07 01:50:41;;;;;;;7.38;1.77;;;;;;;;;;5114758;28;20043;-80
2021/08/07 01:53:10;;;;;;;6.40;2.65;;;;;;;;;;5115010;28;20019;-79
2021/08/07 01:55:49;;;;;;;7.10;2.22;;;;;;;;;;5114811;28;20104;-80
2021/08/07 01:58:24;;;;;;;8.20;2.63;;;;;;;;;;5115656;28;20023;-80
2021/08/07 02:00:50;;;;;;;5.82;2.13;;;;;;;;;;5114603;28;20047;-80
2021/08/07 02:03:17;;;;;;;6.55;2.97;;;;;;;;;;5114591;28;20042;-80
2021/08/07 02:05:44;;;;;;;6.10;3.40;;;;;;;;;;5113677;28;20030;-80
2021/08/07 02:08:10;;;;;;;6.68;2.30;;;;;;;;;;5114532;27;20030;-80
2021/08/07 02:10:40;;;;;;;6.75;2.53;;;;;;;;;;5114402;28;20080;-80
2021/08/07 02:13:07;;;;;;;6.45;2.47;;;;;;;;;;5114706;28;20019;-80
2021/08/07 02:15:34;;;;;;;8.43;2.15;;;;;;;;;;5114494;28;20019;-81
2021/08/07 02:18:00;;;;;;;6.90;2.45;;;;;;;;;;5114773;28;20027;-80
2021/08/07 02:20:27;;;;;;;6.30;2.10;;;;;;;;;;5114891;28;20023;-80
2021/08/07 02:22:54;;;;;;;5.13;1.83;;;;;;;;;;5114962;28;20019;-80
2021/08/07 02:25:20;;;;;;;4.97;2.00;;;;;;;;;;5114628;28;20015;-80
2021/08/07 02:27:47;;;;;;;5.25;2.35;;;;;;;;;;5114272;28;20467;-79
2021/08/07 02:30:13;;;;;;;6.93;1.88;;;;;;;;;;5114189;28;20073;-79
2021/08/07 02:32:41;;;;;;;5.05;2.13;;;;;;;;;;5114197;28;20026;-80
2021/08/07 02:35:09;;;;;;;5.72;2.10;;;;;;;;;;5114057;28;20024;-79
2021/08/07 02:37:36;;;;;;;4.82;2.22;;;;;;;;;;5113849;28;20055;-79
2021/08/07 02:40:06;;;;;;;6.85;1.98;;;;;;;;;;5114258;28;20425;-80
2021/08/07 02:42:33;;;;;;;7.93;1.77;;;;;;;;;;5114092;28;20020;-80
2021/08/07 02:44:59;;;;;;;7.50;2.35;;;;;;;;;;5114142;28;20055;-80
2021/08/07 02:47:26;;;;;;;6.18;2.15;;;;;;;;;;5113939;28;20055;-79
2021/08/07 02:49:52;;;;;;;4.88;1.85;;;;;;;;;;5113955;28;20479;-80
2021/08/07 02:52:19;;;;;;;6.28;1.92;;;;;;;;;;5112633;28;20100;-81
2021/08/07 02:54:46;;;;;;;5.38;2.20;;;;;;;;;;5116750;28;20046;-80
2021/08/07 02:57:12;;;;;;;4.90;1.95;;;;;;;;;;5116809;28;20505;-79
2021/08/07 02:59:39;;;;;;;4.75;2.13;;;;;;;;;;5118311;28;20390;-80
2021/08/07 03:02:04;;;;;;;5.60;2.22;;;;;;;;;;5116757;28;20023;-79
2021/08/07 03:04:30;;;;;;;4.75;1.67;;;;;;;;;;5118255;28;20027;-79
2021/08/07 03:06:56;;;;;;;8.18;1.88;;;;;;;;;;5116768;28;20043;-80
2021/08/07 03:09:21;;;;;;;5.50;1.63;;;;;;;;;;5118033;28;20051;-80
2021/08/07 03:11:47;;;;;;;4.30;1.50;;;;;;;;;;5117856;28;20023;-80
2021/08/07 03:14:13;;;;;;;6.45;2.03;;;;;;;;;;5118091;28;20543;-79
2021/08/07 03:16:39;;;;;;;4.07;1.60;;;;;;;;;;5118017;28;20035;-79
2021/08/07 03:19:05;;;;;;;4.13;1.65;;;;;;;;;;5117610;27;20486;-79
2021/08/07 03:21:30;;;;;;;5.70;1.67;;;;;;;;;;5117816;28;20023;-79
2021/08/07 03:23:56;;;;;;;3.15;1.08;;;;;;;;;;5117655;28;20030;-80
2021/08/07 03:26:23;;;;;;;3.17;1.33;;;;;;;;;;5117632;28;20019;-79
2021/08/07 03:28:49;;;;;;;5.63;1.30;;;;;;;;;;5117823;28;20019;-79
2021/08/07 03:31:15;;;;;;;5.45;0.95;;;;;;;;;;5117757;28;20106;-79
2021/08/07 03:33:41;;;;;;;8.82;1.40;;;;;;;;;;5117668;28;20071;-80
2021/08/07 03:36:08;;;;;;;4.22;1.33;;;;;;;;;;5117577;28;20488;-80
2021/08/07 03:38:34;;;;;;;5.30;1.10;;;;;;;;;;5117191;28;20043;-79
2021/08/07 03:40:59;;;;;;;6.05;0.80;;;;;;;;;;5117331;28;20387;-80
2021/08/07 03:43:25;;;;;;;5.03;1.08;;;;;;;;;;5117468;28;20033;-80
2021/08/07 03:45:51;;;;;;;4.63;1.45;;;;;;;;;;5117221;28;20547;-79
2021/08/07 03:48:17;;;;;;;3.78;1.30;;;;;;;;;;5117450;28;20027;-80
2021/08/07 03:50:43;;;;;;;3.38;0.93;;;;;;;;;;5117287;28;20110;-80
2021/08/07 03:53:09;;;;;;;4.88;1.23;;;;;;;;;;5117198;28;20497;-80
2021/08/07 03:55:34;;;;;;;4.35;1.20;;;;;;;;;;5117216;28;20023;-80
2021/08/07 03:58:00;;;;;;;4.13;1.30;;;;;;;;;;5117059;28;20024;-78
2021/08/07 04:00:32;;;;;;;3.28;1.52;;;;;;;;;;5116079;28;20054;-84
2021/08/07 04:03:05;;;;;;;3.92;0.98;;;;;;;;;;5117304;28;20019;-81
2021/08/07 04:05:36;;;;;;;3.30;0.70;;;;;;;;;;5115998;28;20030;-80
2021/08/07 04:08:11;;;;;;;2.97;0.73;;;;;;;;;;5116835;28;20103;-82
2021/08/07 04:10:38;;;;;;;2.72;1.10;;;;;;;;;;5117255;28;20035;-80
2021/08/07 04:13:04;;;;;;;5.07;0.85;;;;;;;;;;5116693;28;20069;-80
2021/08/07 04:15:30;;;;;;;2.90;0.82;;;;;;;;;;5116770;27;20026;-80
2021/08/07 04:17:56;;;;;;;2.65;0.68;;;;;;;;;;5116519;28;20036;-80
2021/08/07 04:20:22;;;;;;;4.22;0.82;;;;;;;;;;5116283;27;20046;-79
2021/08/07 04:22:48;;;;;;;3.20;0.93;;;;;;;;;;5116429;28;20475;-80
2021/08/07 04:25:14;;;;;;;5.13;0.80;;;;;;;;;;5116554;28;20020;-82
2021/08/07 04:27:39;;;;;;;3.25;1.02;;;;;;;;;;5116447;28;20024;-80
2021/08/07 04:30:07;;;;;;;4.03;0.68;;;;;;;;;;5116336;28;20028;-79
2021/08/07 04:32:33;;;;;;;2.15;0.68;;;;;;;;;;5116570;28;20023;-80
2021/08/07 04:34:59;;;;;;;3.67;1.63;;;;;;;;;;5116408;28;20411;-78
2021/08/07 04:37:24;;;;;;;5.25;1.10;;;;;;;;;;5116222;28;20044;-81
2021/08/07 04:39:50;;;;;;;4.82;0.85;;;;;;;;;;5116392;28;20023;-82
2021/08/07 04:42:16;;;;;;;1.98;0.68;;;;;;;;;;5116199;28;20023;-82
2021/08/07 04:44:43;;;;;;;2.13;0.57;;;;;;;;;;5116342;28;20023;-81
2021/08/07 04:47:08;;;;;;;2.80;0.82;;;;;;;;;;5116194;28;20106;-82
2021/08/07 04:49:34;;;;;;;3.60;1.17;;;;;;;;;;5116062;28;20450;-82
2021/08/07 04:52:01;;;;;;;3.97;0.60;;;;;;;;;;5116419;28;20020;-82
2021/08/07 04:54:27;;;;;;;3.28;0.65;;;;;;;;;;5116215;28;20051;-82
2021/08/07 04:56:53;;;;;;;3.47;0.60;;;;;;;;;;5116234;28;20034;-82
2021/08/07 04:59:19;;;;;;;5.35;0.60;;;;;;;;;;5116048;28;20486;-82
2021/08/07 05:01:44;;;;;;;1.75;0.57;;;;;;;;;;5118181;28;20079;-81
2021/08/07 05:04:13;;;;;;;3.10;1.52;;;;;;;;;;5124469;28;20378;-83
2021/08/07 05:06:44;;;;;;;3.53;0.57;;;;;;;;;;5124673;28;20400;-81
2021/08/07 05:09:10;;;;;;;3.75;0.68;;;;;;;;;;5126529;28;20027;-81
2021/08/07 05:11:36;;;;;;;3.78;0.60;;;;;;;;;;5129509;28;20112;-81
2021/08/07 05:14:02;;;;;;;2.15;0.50;;;;;;;;;;5121152;27;20033;-82
2021/08/07 05:16:28;;;;;;;3.08;0.60;;;;;;;;;;5119260;28;20027;-81
2021/08/07 05:18:54;;;;;;;3.63;0.63;;;;;;;;;;5118307;28;20023;-80
2021/08/07 05:21:19;;;;;;;1.77;0.52;;;;;;;;;;5117981;28;20019;-81
2021/08/07 05:23:45;;;;;;;1.85;0.47;;;;;;;;;;5116387;28;20028;-81
2021/08/07 05:26:11;;;;;;;1.67;0.52;;;;;;;;;;5115941;28;20641;-82
2021/08/07 05:28:36;;;;;;;5.80;1.33;;;;;;;;;;5115500;28;20398;-82
2021/08/07 05:31:02;;;;;;;2.55;0.40;;;;;;;;;;5115550;28;20020;-82
2021/08/07 05:33:28;;;;;;;3.40;0.75;;;;;;;;;;5117370;28;20030;-83
2021/08/07 05:35:53;;;;;;;3.45;0.77;;;;;;;;;;5115233;28;20030;-82
2021/08/07 05:38:19;;;;;;;2.20;0.55;;;;;;;;;;5117229;28;20126;-81
2021/08/07 05:40:48;;;;;;;1.48;0.45;;;;;;;;;;5118547;27;20024;-82
2021/08/07 05:43:13;;;;;;;4.63;0.73;;;;;;;;;;5118970;28;20054;-82
2021/08/07 05:45:39;;;;;;;1.95;0.50;;;;;;;;;;5121581;28;20023;-81
2021/08/07 05:48:05;;;;;;;2.97;0.57;;;;;;;;;;5119393;28;20145;-81
2021/08/07 05:50:30;;;;;;;1.67;0.30;;;;;;;;;;5119623;28;20379;-83
2021/08/07 05:52:56;;;;;;;3.45;0.88;;;;;;;;;;5118026;28;20024;-83
2021/08/07 05:55:22;;;;;;;2.13;0.63;;;;;;;;;;5118741;28;20530;-82
2021/08/07 05:57:48;;;;;;;2.00;0.38;;;;;;;;;;5118722;28;20023;-83
2021/08/07 06:00:14;;;;;;;1.67;0.40;;;;;;;;;;5117675;28;20056;-83
2021/08/07 06:02:39;;;;;;;3.05;0.80;;;;;;;;;;5118589;27;20023;-84
2021/08/07 06:05:05;;;;;;;2.63;0.55;;;;;;;;;;5118522;28;20076;-83
2021/08/07 06:07:31;;;;;;;15.38;1.25;;;;;;;;;;5118574;28;20056;-84
2021/08/07 06:09:57;;;;;;;3.08;0.95;;;;;;;;;;5118620;28;20432;-82
2021/08/07 06:12:23;;;;;;;1.27;0.40;;;;;;;;;;5118611;28;20023;-83
2021/08/07 06:14:49;;;;;;;3.83;0.77;;;;;;;;;;5118252;28;20016;-83
2021/08/07 06:17:14;;;;;;;1.55;0.40;;;;;;;;;;5118245;28;20027;-84
2021/08/07 06:19:40;;;;;;;3.05;1.40;;;;;;;;;;5118533;28;20492;-83
2021/08/07 06:22:06;;;;;;;1.80;0.60;;;;;;;;;;5118482;28;20024;-82
2021/08/07 06:24:31;;;;;;;2.33;0.80;;;;;;;;;;5118632;28;20026;-82
2021/08/07 06:27:00;;;;;;;4.90;0.57;;;;;;;;;;5118344;28;20031;-83
2021/08/07 06:29:26;;;;;;;2.83;0.60;;;;;;;;;;5117502;28;20089;-83
2021/08/07 06:31:52;;;;;;;1.60;0.47;;;;;;;;;;5117845;28;20015;-84
2021/08/07 06:34:17;;;;;;;1.52;0.47;;;;;;;;;;5116350;28;20455;-83
2021/08/07 06:36:43;;;;;;;2.30;0.50;;;;;;;;;;5117340;28;20058;-83
2021/08/07 06:39:10;;;;;;;2.80;0.38;;;;;;;;;;5117302;28;20047;-83
2021/08/07 06:41:35;;;;;;;1.75;0.47;;;;;;;;;;5117654;28;20062;-82
2021/08/07 06:44:01;;;;;;;3.47;0.70;;;;;;;;;;5117106;28;20084;-83
2021/08/07 06:46:27;;;;;;;2.88;0.50;;;;;;;;;;5117393;28;20019;-82
2021/08/07 06:48:55;;;;;;;3.35;0.55;;;;;;;;;;5118113;28;20054;-83
2021/08/07 06:51:22;;;;;;;3.10;0.70;;;;;;;;;;5118113;28;20027;-82
2021/08/07 06:53:48;;;;;;;5.53;0.85;;;;;;;;;;5116789;28;20024;-82
2021/08/07 06:56:14;;;;;;;6.40;0.50;;;;;;;;;;5117210;28;20027;-82
2021/08/07 06:58:40;;;;;;;4.68;0.30;;;;;;;;;;5116744;28;20027;-84
2021/08/07 07:01:06;;;;;;;1.60;0.38;;;;;;;;;;5117404;28;20149;-83
2021/08/07 07:03:32;;;;;;;3.67;0.30;;;;;;;;;;5116732;28;20019;-82
2021/08/07 07:05:58;;;;;;;2.45;0.30;;;;;;;;;;5117938;28;20024;-81
2021/08/07 07:08:23;;;;;;;2.60;0.65;;;;;;;;;;5117669;28;20027;-83
2021/08/07 07:10:50;;;;;;;3.22;0.57;;;;;;;;;;5116855;28;20054;-82
2021/08/07 07:13:15;;;;;;;4.32;0.40;;;;;;;;;;5117198;28;20431;-85
2021/08/07 07:15:41;;;;;;;3.97;0.43;;;;;;;;;;5116963;28;20062;-83
2021/08/07 07:18:07;;;;;;;1.95;0.40;;;;;;;;;;5117058;28;20019;-83
2021/08/07 07:20:35;;;;;;;3.35;0.40;;;;;;;;;;5116785;28;20020;-82
2021/08/07 07:23:00;;;;;;;2.42;0.63;;;;;;;;;;5115177;28;20023;-83
2021/08/07 07:25:26;;;;;;;4.43;3.38;;;;;;;;;;5114629;28;20166;-83
2021/08/07 07:27:51;;;;;;;7.25;3.03;;;;;;;;;;5115925;28;20024;-83
2021/08/07 07:30:18;;;;;;;3.00;0.45;;;;;;;;;;5116687;28;20102;-84
2021/08/07 07:32:44;;;;;;;2.75;0.30;;;;;;;;;;5115770;28;20395;-82
2021/08/07 07:35:11;;;;;;;3.85;0.40;;;;;;;;;;5114883;28;20019;-83
2021/08/07 07:37:36;;;;;;;4.32;2.97;;;;;;;;;;5114601;28;20054;-81
2021/08/07 07:40:05;;;;;;;4.13;2.45;;;;;;;;;;5114646;28;20103;-81
2021/08/07 07:42:31;;;;;;;2.47;2.00;;;;;;;;;;5117903;28;20035;-81
2021/08/07 07:44:57;;;;;;;2.20;0.55;;;;;;;;;;5118268;27;20386;-81
2021/08/07 07:47:22;;;;;;;3.15;1.55;;;;;;;;;;5118396;28;20074;-82
2021/08/07 07:49:48;;;;;;;2.63;2.20;;;;;;;;;;5120757;27;20020;-81
2021/08/07 07:52:14;;;;;;;4.57;3.17;;;;;;;;;;5120666;28;20023;-82
2021/08/07 07:54:39;;;;;;;2.50;1.95;;;;;;;;;;5122455;28;20521;-83
2021/08/07 07:57:06;;;;;;;3.67;2.00;;;;;;;;;;5120486;28;20023;-80
2021/08/07 07:59:31;;;;;;;2.67;2.47;;;;;;;;;;5122927;28;20062;-82
2021/08/07 08:02:02;;;;;;;6.28;3.05;;;;;;;;;;5122579;28;20028;-82
2021/08/07 08:04:29;;;;;;;6.43;2.28;;;;;;;;;;5120486;28;20023;-82
2021/08/07 08:06:56;;;;;;;4.60;1.90;;;;;;;;;;5119990;28;20024;-84
2021/08/07 08:09:24;;;;;;;3.60;2.63;;;;;;;;;;5119180;28;20074;-82
2021/08/07 08:11:52;;;;;;;2.17;1.83;;;;;;;;;;5123299;28;20020;-81
2021/08/07 08:14:19;;;;;;;3.38;2.03;;;;;;;;;;5107020;28;20032;-80
2021/08/07 08:16:46;;;;;;;1.50;0.30;;;;;;;;;;5127869;28;20023;-81
2021/08/07 08:19:14;;;;;;;2.85;2.13;;;;;;;;;;5121935;28;20024;-80
2021/08/07 08:21:40;;;;;;;4.53;1.90;;;;;;;;;;5120009;28;20020;-81
2021/08/07 08:24:06;;;;;;;2.47;2.22;;;;;;;;;;5120895;28;20016;-81
2021/08/07 08:26:33;;;;;;;2.63;0.20;;;;;;;;;;5119713;28;20372;-81
2021/08/07 08:28:58;;;;;;;2.47;2.28;;;;;;;;;;5119639;28;20036;-82
2021/08/07 08:31:24;;;;;;;3.08;2.88;;;;;;;;;;5116401;28;20026;-81
2021/08/07 08:33:50;;;;;;;10.23;2.50;;;;;;;;;;5117086;28;20059;-81
2021/08/07 08:36:15;;;;;;;2.25;2.05;;;;;;;;;;5118645;28;20111;-80
2021/08/07 08:38:41;;;;;;;2.72;2.20;;;;;;;;;;5118621;28;20086;-80
2021/08/07 08:41:18;;;;;;;6.82;1.90;;;;;;;;;;5119295;28;20554;-80
2021/08/07 08:43:43;;;;;;;7.63;2.38;;;;;;;;;;5118986;28;20031;-81
2021/08/07 08:46:13;;;;;;;2.72;2.47;;;;;;;;;;5119625;28;20023;-81
2021/08/07 08:48:39;;;;;;;5.15;3.30;;;;;;;;;;5118683;28;20031;-81
2021/08/07 08:51:08;;;;;;;4.55;3.70;;;;;;;;;;5118212;28;20055;-81
2021/08/07 08:53:41;;;;;;;3.55;2.67;;;;;;;;;;5119522;28;20023;-80
2021/08/07 08:56:07;;;;;;;8.73;3.03;;;;;;;;;;5119290;28;20024;-81
2021/08/07 08:58:35;;;;;;;4.07;2.22;;;;;;;;;;5119090;27;20027;-80
2021/08/07 09:01:20;;;;;;;1.25;0.30;;;;;;;;;;5119004;28;20032;-81
2021/08/07 09:03:48;;;;;;;6.43;0.75;;;;;;;;;;5116918;28;20387;-81
2021/08/07 09:06:14;;;;;;;1.95;1.75;;;;;;;;;;5118284;28;20031;-80
2021/08/07 09:09:10;;;;;;;3.17;2.58;;;;;;;;;;5117272;28;20464;-80
2021/08/07 09:11:38;;;;;;;2.35;2.10;;;;;;;;;;5116510;28;20478;-79
2021/08/07 09:14:26;;;;;;;4.50;2.47;;;;;;;;;;5115915;28;20035;-79
2021/08/07 09:16:58;;;;;;;5.50;2.13;;;;;;;;;;5116697;27;20028;-79
2021/08/07 09:19:51;;;;;;;2.33;0.30;;;;;;;;;;5118384;28;20440;-80
2021/08/07 09:22:31;;;;;;;3.30;2.50;;;;;;;;;;5110939;28;20036;-80
2021/08/07 09:25:40;;;;;;;4.18;2.65;;;;;;;;;;5118455;28;20103;-80
2021/08/07 09:28:07;;;;;;;3.83;1.95;;;;;;;;;;5116072;28;20034;-80
2021/08/07 09:30:42;;;;;;;2.45;0.28;;;;;;;;;;5116890;28;20019;-82
2021/08/07 09:33:29;;;;;;;2.97;2.50;;;;;;;;;;5116647;28;20031;-81
2021/08/07 09:36:21;;;;;;;1.70;0.38;;;;;;;;;;5122001;28;20463;-80
2021/08/07 09:38:47;;;;;;;3.83;2.10;;;;;;;;;;5109108;28;20126;-79
2021/08/07 09:41:14;;;;;;;4.43;1.50;;;;;;;;;;5115063;28;20451;-80
2021/08/07 09:43:44;;;;;;;2.85;0.30;;;;;;;;;;5115192;28;20024;-80
2021/08/07 09:46:33;;;;;;;4.30;1.98;;;;;;;;;;5115660;28;20058;-79
2021/08/07 09:48:58;;;;;;;2.95;2.70;;;;;;;;;;5115536;27;20031;-80
2021/08/07 09:51:36;;;;;;;3.10;2.67;;;;;;;;;;5115403;28;20030;-79
2021/08/07 09:54:16;;;;;;;2.78;2.00;;;;;;;;;;5115237;27;20047;-80
2021/08/07 09:56:57;;;;;;;2.15;1.95;;;;;;;;;;5115384;28;20475;-80
2021/08/07 09:59:24;;;;;;;4.35;2.05;;;;;;;;;;5115759;28;20042;-79
2021/08/07 10:01:53;;;;;;;2.75;2.40;;;;;;;;;;5117222;28;20024;-81
2021/08/07 10:04:20;;;;;;;1.83;0.40;;;;;;;;;;5115853;28;20050;-81
2021/08/07 10:06:47;;;;;;;3.25;2.08;;;;;;;;;;5126675;28;20061;-82
2021/08/07 10:09:14;;;;;;;1.38;0.20;;;;;;;;;;5123763;28;20035;-81
2021/08/07 10:12:00;;;;;;;2.75;2.08;;;;;;;;;;5106785;28;20020;-81
2021/08/07 10:14:26;;;;;;;2.30;2.10;;;;;;;;;;5094271;28;20038;-81
2021/08/07 10:16:52;;;;;;;3.00;2.80;;;;;;;;;;5093162;28;20020;-81
2021/08/07 10:19:19;;;;;;;2.05;1.67;;;;;;;;;;5094182;28;20028;-81
2021/08/07 10:21:47;;;;;;;1.30;0.30;;;;;;;;;;5093477;28;20430;-80
2021/08/07 10:24:13;;;;;;;2.42;2.08;;;;;;;;;;5095164;28;20020;-80
2021/08/07 10:26:41;;;;;;;1.08;0.20;;;;;;;;;;5094714;28;20426;-80
2021/08/07 10:29:08;;;;;;;4.13;2.47;;;;;;;;;;5094405;28;20020;-80
2021/08/07 10:31:36;;;;;;;3.42;2.08;;;;;;;;;;5094708;28;20027;-81
2021/08/07 10:34:04;;;;;;;3.85;0.25;;;;;;;;;;5094133;28;20032;-81
2021/08/07 10:36:31;;;;;;;3.10;2.17;;;;;;;;;;5092764;28;20037;-80
2021/08/07 10:38:58;;;;;;;4.18;1.55;;;;;;;;;;5093873;28;20044;-80
2021/08/07 10:41:28;;;;;;;2.35;1.95;;;;;;;;;;5094307;28;20020;-80
2021/08/07 10:43:55;;;;;;;2.70;2.40;;;;;;;;;;5093967;28;20088;-80
2021/08/07 10:46:22;;;;;;;4.45;0.98;;;;;;;;;;5094829;28;20416;-81
2021/08/07 10:48:51;;;;;;;2.38;2.08;;;;;;;;;;5094270;28;20024;-80
2021/08/07 10:51:22;;;;;;;4.93;2.55;;;;;;;;;;5092934;28;20047;-80
2021/08/07 10:53:49;;;;;;;6.43;2.78;;;;;;;;;;5093978;28;20439;-80
2021/08/07 10:56:35;;;;;;;10.68;6.88;;;;;;;;;;5094058;28;20066;-80
2021/08/07 10:59:10;;;;;;;2.92;0.45;;;;;;;;;;5092906;28;20321;-80
2021/08/07 11:01:37;;;;;;;11.70;8.77;;;;;;;;;;5092859;28;20064;-80
2021/08/07 11:04:06;;;;;;;4.05;2.63;;;;;;;;;;5092888;28;20519;-79
2021/08/07 11:06:44;;;;;;;4.75;2.47;;;;;;;;;;5094288;28;20023;-80
2021/08/07 11:09:22;;;;;;;38.05;28.00;;;;;;;;;;5092428;28;20024;-79
2021/08/07 11:12:11;;;;;;;19.08;15.10;;;;;;;;;;5095255;28;20539;-80
2021/08/07 11:14:39;;;;;;;8.20;6.20;;;;;;;;;;5091661;28;20066;-80
2021/08/07 11:17:05;;;;;;;1.40;0.30;;;;;;;;;;5099587;28;20020;-81
2021/08/07 11:19:51;;;;;;;5.22;0.57;;;;;;;;;;5098715;28;20395;-81
2021/08/07 11:22:44;;;;;;;3.25;1.70;;;;;;;;;;5098448;28;20032;-80
2021/08/07 11:25:17;;;;;;;2.75;0.40;;;;;;;;;;5098531;28;20356;-81
2021/08/07 11:28:01;;;;;;;4.50;1.98;;;;;;;;;;5097986;28;20028;-80
2021/08/07 11:30:39;;;;;;;3.03;0.22;;;;;;;;;;5097849;28;20033;-79
2021/08/07 11:33:06;;;;;;;4.15;2.15;;;;;;;;;;5097756;28;20468;-79
2021/08/07 11:35:49;;;;;;;4.75;0.63;;;;;;;;;;5097860;28;20028;-78
2021/08/07 11:38:17;;;;;;;16.70;8.60;;;;;;;;;;5097528;28;20514;-81
2021/08/07 11:40:46;;;;;;;10.20;6.35;;;;;;;;;;5096579;28;20024;-79
2021/08/07 11:43:21;;;;;;;;;;;;;;;;;;5097510;28;20032;-80
2021/08/07 11:46:00;;;;;;;3.80;0.35;;;;;;;;;;5097308;28;19998;-80
2021/08/07 11:48:36;;;;;;;1.67;0.20;;;;;;;;;;5097701;28;20035;-81
2021/08/07 11:51:11;;;;;;;2.38;0.63;;;;;;;;;;5095933;28;20024;-80
2021/08/07 11:53:42;;;;;;;2.03;0.88;;;;;;;;;;5096982;28;20044;-80
2021/08/07 11:56:09;;;;;;;4.75;2.40;;;;;;;;;;5097346;28;20050;-80
2021/08/07 11:58:49;;;;;;;1.05;0.20;;;;;;;;;;5097449;28;20028;-80
2021/08/07 12:01:16;;;;;;;1.88;0.20;;;;;;;;;;5097430;28;20042;-79
2021/08/07 12:03:52;;;;;;;4.97;2.63;;;;;;;;;;5097156;28;20027;-79
2021/08/07 12:06:27;;;;;;;3.92;1.67;;;;;;;;;;5097015;28;20016;-79
2021/08/07 12:08:52;;;;;;;0.95;0.20;;;;;;;;;;5097071;28;20361;-80
2021/08/07 12:11:19;;;;;;;2.33;1.77;;;;;;;;;;5097143;28;20085;-79
2021/08/07 12:13:59;;;;;;;2.25;1.95;;;;;;;;;;5098599;28;20030;-79
2021/08/07 12:16:37;;;;;;;1.77;1.67;;;;;;;;;;5095346;28;20022;-79
2021/08/07 12:19:14;;;;;;;1.38;0.30;;;;;;;;;;5096827;28;20028;-80
2021/08/07 12:21:41;;;;;;;3.42;2.33;;;;;;;;;;5096913;28;20035;-81
2021/08/07 12:24:23;;;;;;;1.55;0.50;;;;;;;;;;5096843;28;20020;-81
2021/08/07 12:26:54;;;;;;;3.20;0.30;;;;;;;;;;5095816;28;20028;-80
2021/08/07 12:29:24;;;;;;;1.20;0.30;;;;;;;;;;5096114;28;20502;-81
2021/08/07 12:32:05;;;;;;;5.00;2.60;;;;;;;;;;5098637;28;20036;-81
2021/08/07 12:34:46;;;;;;;1.10;0.25;;;;;;;;;;5098780;28;20360;-80
2021/08/07 12:37:19;;;;;;;3.47;2.47;;;;;;;;;;5097821;28;20044;-80
2021/08/07 12:40:00;;;;;;;4.65;2.70;;;;;;;;;;5097766;28;20551;-79
2021/08/07 12:42:27;;;;;;;1.63;0.50;;;;;;;;;;5096383;28;20036;-81
2021/08/07 12:45:02;;;;;;;1.35;0.25;;;;;;;;;;5097454;28;20069;-80
2021/08/07 12:47:32;;;;;;;4.43;0.28;;;;;;;;;;5097037;28;20224;-80
2021/08/07 12:50:27;;;;;;;1.42;0.20;;;;;;;;;;5097593;28;20024;-80
2021/08/07 12:52:56;;;;;;;1.02;0.20;;;;;;;;;;5078237;28;20028;-80
2021/08/07 12:55:31;;;;;;;1.88;0.25;;;;;;;;;;5096375;28;20031;-81
2021/08/07 12:58:29;;;;;;;3.22;1.70;;;;;;;;;;5096536;28;20061;-81
2021/08/07 13:01:12;;;;;;;2.67;2.47;;;;;;;;;;5051873;28;20039;-81
2021/08/07 13:03:55;;;;;;;3.63;2.15;;;;;;;;;;5096650;28;20028;-78
2021/08/07 13:07:00;;;;;;;1.42;0.30;;;;;;;;;;5098655;28;20024;-80
2021/08/07 13:09:27;;;;;;;1.27;0.28;;;;;;;;;;5100132;28;20387;-81
2021/08/07 13:12:17;;;;;;;2.60;0.30;;;;;;;;;;5098021;28;20052;-80
2021/08/07 13:15:07;;;;;;;0.95;0.22;;;;;;;;;;5097980;28;20108;-80
2021/08/07 13:17:36;;;;;;;2.90;1.73;;;;;;;;;;5096178;28;20034;-81
2021/08/07 13:20:12;;;;;;;1.83;0.30;;;;;;;;;;5095936;28;20476;-81
2021/08/07 13:22:59;;;;;;;0.95;0.20;;;;;;;;;;5098415;28;20024;-81
2021/08/07 13:26:00;;;;;;;2.38;2.08;;;;;;;;;;5097471;28;20032;-81
2021/08/07 13:28:26;;;;;;;2.85;2.47;;;;;;;;;;5097918;28;20046;-81
2021/08/07 13:30:53;;;;;;;3.00;2.38;;;;;;;;;;5098433;28;20464;-81
2021/08/07 13:33:29;;;;;;;2.42;1.88;;;;;;;;;;5094993;28;20076;-80
2021/08/07 13:36:03;;;;;;;2.47;2.03;;;;;;;;;;5095540;28;20117;-79
2021/08/07 13:38:50;;;;;;;2.42;2.22;;;;;;;;;;5096503;28;20092;-80
2021/08/07 13:41:15;;;;;;;3.92;1.80;;;;;;;;;;5095370;28;20031;-79
2021/08/07 13:43:41;;;;;;;3.10;2.00;;;;;;;;;;5095901;28;20024;-80
2021/08/07 13:46:09;;;;;;;2.70;2.50;;;;;;;;;;5096607;28;20479;-81
2021/08/07 13:48:35;;;;;;;2.92;2.00;;;;;;;;;;5096067;28;20035;-79
2021/08/07 13:51:00;;;;;;;2.55;2.28;;;;;;;;;;5097608;28;20021;-80
2021/08/07 13:53:26;;;;;;;2.25;1.63;;;;;;;;;;5099606;28;20020;-80
2021/08/07 13:55:55;;;;;;;4.00;2.50;;;;;;;;;;5097897;28;20043;-79
2021/08/07 13:58:21;;;;;;;3.55;0.70;;;;;;;;;;5097319;28;20379;-79
2021/08/07 14:00:47;;;;;;;1.98;0.40;;;;;;;;;;5096602;28;20030;-81
2021/08/07 14:03:15;;;;;;;2.28;2.08;;;;;;;;;;5096515;28;20032;-79
2021/08/07 14:05:40;;;;;;;2.65;2.20;;;;;;;;;;5096411;28;20471;-79
2021/08/07 14:08:09;;;;;;;1.45;0.30;;;;;;;;;;5096214;28;20027;-79
2021/08/07 14:10:47;;;;;;;3.00;2.00;;;;;;;;;;5097064;28;20055;-78
2021/08/07 14:13:16;;;;;;;4.22;2.22;;;;;;;;;;5096734;28;20032;-78
2021/08/07 14:15:41;;;;;;;2.72;2.38;;;;;;;;;;5096100;28;20016;-79
2021/08/07 14:18:08;;;;;;;2.10;0.50;;;;;;;;;;5093712;28;20115;-80
2021/08/07 14:20:34;;;;;;;5.95;0.75;;;;;;;;;;5095994;28;20107;-81
2021/08/07 14:23:00;;;;;;;1.20;0.30;;;;;;;;;;5095632;28;20112;-80
2021/08/07 14:25:26;;;;;;;2.63;2.40;;;;;;;;;;5095187;28;20036;-78
2021/08/07 14:27:52;;;;;;;3.83;0.30;;;;;;;;;;5095520;28;20027;-79
2021/08/07 14:30:18;;;;;;;5.03;2.15;;;;;;;;;;5094896;28;20077;-79
2021/08/07 14:32:57;;;;;;;4.45;2.15;;;;;;;;;;5099004;28;20024;-79
2021/08/07 14:35:23;;;;;;;2.63;2.30;;;;;;;;;;5100176;28;20491;-81
2021/08/07 14:37:53;;;;;;;3.00;2.45;;;;;;;;;;5101425;28;20135;-80
2021/08/07 14:40:19;;;;;;;5.57;3.00;;;;;;;;;;5084488;28;20028;-81
2021/08/07 14:42:46;;;;;;;5.15;2.63;;;;;;;;;;5095482;28;20112;-79
2021/08/07 14:45:12;;;;;;;2.58;2.17;;;;;;;;;;5101796;28;20008;-78
2021/08/07 14:47:37;;;;;;;2.05;1.48;;;;;;;;;;5118677;28;20004;-78
2021/08/07 14:50:05;;;;;;;3.85;2.55;;;;;;;;;;5109177;28;20056;-78
2021/08/07 14:52:31;;;;;;;6.55;2.83;;;;;;;;;;5094904;28;20025;-79
2021/08/07 14:54:56;;;;;;;5.90;2.90;;;;;;;;;;5094814;28;20035;-77
2021/08/07 14:57:22;;;;;;;11.88;3.47;;;;;;;;;;5094279;28;20028;-78
2021/08/07 14:59:49;;;;;;;1.58;0.60;;;;;;;;;;5096548;28;20399;-78
2021/08/07 15:02:14;;;;;;;6.82;2.35;;;;;;;;;;5103313;28;20067;-78